createdAt,value
2022-12-25T00:06:25.281Z,17.20
2022-12-25T00:28:11.084Z,16.60
2022-12-25T00:49:56.913Z,15.40
2022-12-25T01:11:42.687Z,17.70
2022-12-25T01:33:28.323Z,16.40
2022-12-25T01:55:14.669Z,14.40
2022-12-25T02:17:08.805Z,12.90
2022-12-25T02:39:18.330Z,17.40
2022-12-25T03:01:26.272Z,11.80
2022-12-25T03:23:31.306Z,11.00
2022-12-25T03:45:45.265Z,13.90
2022-12-25T04:07:48.715Z,13.30
2022-12-25T04:29:52.359Z,11.70
2022-12-25T04:51:39.379Z,11.00
2022-12-25T05:13:25.303Z,13.00
2022-12-25T05:35:12.078Z,15.80
2022-12-25T05:56:58.192Z,17.40
2022-12-25T06:18:46.091Z,21.00
2022-12-25T06:40:31.803Z,19.20
2022-12-25T07:02:20.820Z,18.40
2022-12-25T07:24:07.450Z,18.50
2022-12-25T07:45:57.859Z,21.30
2022-12-25T08:07:43.791Z,20.50
2022-12-25T08:29:29.669Z,26.60
2022-12-25T08:51:17.540Z,26.60
2022-12-25T09:13:03.215Z,25.60
2022-12-25T09:34:48.909Z,26.60
2022-12-25T09:56:36.248Z,20.80
2022-12-25T10:18:49.191Z,19.90
2022-12-25T10:40:44.248Z,20.10
2022-12-25T11:02:35.618Z,19.20
2022-12-25T11:43:49.651Z,21.50
2022-12-25T12:05:41.240Z,19.70
2022-12-25T12:27:35.537Z,17.30
2022-12-25T12:49:25.707Z,19.30
2022-12-25T13:11:19.576Z,18.60
2022-12-25T13:33:06.186Z,21.80
2022-12-25T13:55:01.553Z,20.90
2022-12-25T14:16:49.802Z,18.70
2022-12-25T14:38:36.899Z,26.20
2022-12-25T15:00:27.603Z,22.80
2022-12-25T15:22:15.179Z,29.10
2022-12-25T15:44:00.952Z,30.50
2022-12-25T16:05:46.764Z,30.70
2022-12-25T16:27:32.498Z,36.70
2022-12-25T16:49:18.408Z,34.60
2022-12-25T17:11:06.744Z,36.80
2022-12-25T17:32:52.679Z,36.50
2022-12-25T17:54:39.272Z,37.40
2022-12-25T18:16:27.177Z,41.30
2022-12-25T18:38:13.281Z,42.00
2022-12-25T18:59:58.979Z,37.30
2022-12-25T19:21:45.597Z,40.80
2022-12-25T19:43:33.358Z,42.60
2022-12-25T20:05:19.303Z,37.40
2022-12-25T20:43:45.096Z,39.50
2022-12-25T21:05:31.494Z,31.90
2022-12-25T21:27:17.342Z,26.50
2022-12-25T21:49:03.100Z,23.90
2022-12-25T22:10:48.823Z,28.50
2022-12-25T22:44:16.480Z,30.70
2022-12-25T23:05:58.353Z,28.00
2022-12-25T23:27:44.751Z,35.30
2022-12-25T23:49:31.028Z,35.90
